Lourdes, Canada
Current Conditions -  °F | °C
As of 12:00 AM on Saturday 22 Nov 2014 (Local Time) from CYJT Reporting Station
Overcast Overcast  
Wind Chill: 12°   Ceiling: 2200
Heat Index: 25°   Visibility: 15mi
Dew Point: 16°   Wind: 15mph
Humidity: 69%   Direction: 300°WNW
Pressure: 29.58"   Gusts: 26mph
Location:  48.65°N, 58.98°W
Report Text: CYJT 220300Z 30013G23KT 15SM FEW016 OVC022 M04/M09 A2958 RMK SF2SC6 SLP019
Loading
Personal Weather Stations






























Interactive Weather Map New forecast layout! Learn more

10-Day Weather Forecast

Advertisements
Track Severe Weather on mobile